sensor_id;sensor_type;location;lat;lon;timestamp;temperature;humidity
65584;DHT22;73032;43.592;1.458;2023-12-14T00:01:20;9.37;89.76
65584;DHT22;73032;43.592;1.458;2023-12-14T00:03:46;9.37;89.71
65584;DHT22;73032;43.592;1.458;2023-12-14T00:06:14;9.36;89.62
65584;DHT22;73032;43.592;1.458;2023-12-14T00:08:41;9.38;89.72
65584;DHT22;73032;43.592;1.458;2023-12-14T00:11:09;9.36;89.68
65584;DHT22;73032;43.592;1.458;2023-12-14T00:13:37;9.37;89.77
65584;DHT22;73032;43.592;1.458;2023-12-14T00:16:05;9.37;89.79
65584;DHT22;73032;43.592;1.458;2023-12-14T00:18:32;9.36;89.56
65584;DHT22;73032;43.592;1.458;2023-12-14T00:20:59;9.33;89.40
65584;DHT22;73032;43.592;1.458;2023-12-14T00:23:25;9.28;89.29
65584;DHT22;73032;43.592;1.458;2023-12-14T00:25:52;9.30;89.39
65584;DHT22;73032;43.592;1.458;2023-12-14T00:28:19;9.30;89.23
65584;DHT22;73032;43.592;1.458;2023-12-14T00:30:46;9.26;89.11
65584;DHT22;73032;43.592;1.458;2023-12-14T00:33:13;9.26;89.07
65584;DHT22;73032;43.592;1.458;2023-12-14T00:35:40;9.26;89.11
65584;DHT22;73032;43.592;1.458;2023-12-14T00:38:06;9.28;89.05
65584;DHT22;73032;43.592;1.458;2023-12-14T00:40:33;9.26;89.09
65584;DHT22;73032;43.592;1.458;2023-12-14T00:43:00;9.23;89.06
65584;DHT22;73032;43.592;1.458;2023-12-14T00:45:27;9.22;89.02
65584;DHT22;73032;43.592;1.458;2023-12-14T00:47:53;9.20;89.03
65584;DHT22;73032;43.592;1.458;2023-12-14T00:50:20;9.20;88.91
65584;DHT22;73032;43.592;1.458;2023-12-14T00:52:47;9.20;89.08
65584;DHT22;73032;43.592;1.458;2023-12-14T00:55:13;9.23;89.00
65584;DHT22;73032;43.592;1.458;2023-12-14T00:57:40;9.23;88.98
65584;DHT22;73032;43.592;1.458;2023-12-14T01:00:07;9.22;89.00
65584;DHT22;73032;43.592;1.458;2023-12-14T01:02:36;9.22;89.04
65584;DHT22;73032;43.592;1.458;2023-12-14T01:05:03;9.20;88.99
65584;DHT22;73032;43.592;1.458;2023-12-14T01:07:31;9.19;89.03
65584;DHT22;73032;43.592;1.458;2023-12-14T01:09:57;9.19;89.26
65584;DHT22;73032;43.592;1.458;2023-12-14T01:12:24;9.19;89.13
65584;DHT22;73032;43.592;1.458;2023-12-14T01:14:51;9.16;89.04
65584;DHT22;73032;43.592;1.458;2023-12-14T01:17:17;9.16;88.91
65584;DHT22;73032;43.592;1.458;2023-12-14T01:19:44;9.16;88.91
65584;DHT22;73032;43.592;1.458;2023-12-14T01:22:11;9.13;88.62
65584;DHT22;73032;43.592;1.458;2023-12-14T01:24:38;9.13;88.49
65584;DHT22;73032;43.592;1.458;2023-12-14T01:27:05;9.10;88.39
65584;DHT22;73032;43.592;1.458;2023-12-14T01:29:31;9.09;87.91
65584;DHT22;73032;43.592;1.458;2023-12-14T01:31:58;9.05;87.67
65584;DHT22;73032;43.592;1.458;2023-12-14T01:34:25;9.05;87.79
65584;DHT22;73032;43.592;1.458;2023-12-14T01:36:51;9.00;87.61
65584;DHT22;73032;43.592;1.458;2023-12-14T01:39:18;9.00;87.31
65584;DHT22;73032;43.592;1.458;2023-12-14T01:41:45;8.97;87.44
65584;DHT22;73032;43.592;1.458;2023-12-14T01:44:11;8.92;87.34
65584;DHT22;73032;43.592;1.458;2023-12-14T01:46:38;8.92;87.32
65584;DHT22;73032;43.592;1.458;2023-12-14T01:49:05;8.92;87.35
65584;DHT22;73032;43.592;1.458;2023-12-14T01:51:31;8.90;87.37
65584;DHT22;73032;43.592;1.458;2023-12-14T01:54:00;8.92;87.22
65584;DHT22;73032;43.592;1.458;2023-12-14T01:56:27;8.89;87.13
65584;DHT22;73032;43.592;1.458;2023-12-14T01:58:53;8.90;86.97
65584;DHT22;73032;43.592;1.458;2023-12-14T02:01:40;8.85;86.59
65584;DHT22;73032;43.592;1.458;2023-12-14T02:04:08;8.82;86.65
65584;DHT22;73032;43.592;1.458;2023-12-14T02:06:36;8.77;86.74
65584;DHT22;73032;43.592;1.458;2023-12-14T02:09:03;8.77;86.57
65584;DHT22;73032;43.592;1.458;2023-12-14T02:11:30;8.76;86.51
65584;DHT22;73032;43.592;1.458;2023-12-14T02:13:57;8.79;86.55
65584;DHT22;73032;43.592;1.458;2023-12-14T02:16:24;8.76;86.52
65584;DHT22;73032;43.592;1.458;2023-12-14T02:18:50;8.76;86.48
65584;DHT22;73032;43.592;1.458;2023-12-14T02:21:17;8.77;85.83
65584;DHT22;73032;43.592;1.458;2023-12-14T02:23:46;8.76;86.27
65584;DHT22;73032;43.592;1.458;2023-12-14T02:26:13;8.76;85.83
65584;DHT22;73032;43.592;1.458;2023-12-14T02:28:41;8.77;86.08
65584;DHT22;73032;43.592;1.458;2023-12-14T02:31:07;8.77;85.95
65584;DHT22;73032;43.592;1.458;2023-12-14T02:33:34;8.82;86.08
65584;DHT22;73032;43.592;1.458;2023-12-14T02:36:01;8.80;86.15
65584;DHT22;73032;43.592;1.458;2023-12-14T02:38:30;8.85;86.40
65584;DHT22;73032;43.592;1.458;2023-12-14T02:40:57;8.82;86.38
65584;DHT22;73032;43.592;1.458;2023-12-14T02:43:23;8.80;86.22
65584;DHT22;73032;43.592;1.458;2023-12-14T02:45:50;8.82;86.35
65584;DHT22;73032;43.592;1.458;2023-12-14T02:48:17;8.77;85.99
65584;DHT22;73032;43.592;1.458;2023-12-14T02:50:44;8.77;86.01
65584;DHT22;73032;43.592;1.458;2023-12-14T02:53:10;8.76;86.10
65584;DHT22;73032;43.592;1.458;2023-12-14T02:55:37;8.76;85.91
65584;DHT22;73032;43.592;1.458;2023-12-14T02:58:04;8.73;86.07
65584;DHT22;73032;43.592;1.458;2023-12-14T03:00:30;8.72;85.86
65584;DHT22;73032;43.592;1.458;2023-12-14T03:02:57;8.68;85.64
65584;DHT22;73032;43.592;1.458;2023-12-14T03:05:24;8.66;85.88
65584;DHT22;73032;43.592;1.458;2023-12-14T03:07:51;8.65;85.43
65584;DHT22;73032;43.592;1.458;2023-12-14T03:10:17;8.65;85.56
65584;DHT22;73032;43.592;1.458;2023-12-14T03:12:47;8.63;85.72
65584;DHT22;73032;43.592;1.458;2023-12-14T03:15:17;8.65;85.60
65584;DHT22;73032;43.592;1.458;2023-12-14T03:17:44;8.61;85.43
65584;DHT22;73032;43.592;1.458;2023-12-14T03:20:12;8.55;85.46
65584;DHT22;73032;43.592;1.458;2023-12-14T03:22:40;8.55;85.44
65584;DHT22;73032;43.592;1.458;2023-12-14T03:25:09;8.56;85.68
65584;DHT22;73032;43.592;1.458;2023-12-14T03:27:36;8.53;85.79
65584;DHT22;73032;43.592;1.458;2023-12-14T03:30:03;8.51;85.69
65584;DHT22;73032;43.592;1.458;2023-12-14T03:32:34;8.49;85.67
65584;DHT22;73032;43.592;1.458;2023-12-14T03:35:02;8.46;85.54
65584;DHT22;73032;43.592;1.458;2023-12-14T03:37:29;8.48;85.63
65584;DHT22;73032;43.592;1.458;2023-12-14T03:39:56;8.48;85.82
65584;DHT22;73032;43.592;1.458;2023-12-14T03:42:22;8.48;85.51
65584;DHT22;73032;43.592;1.458;2023-12-14T03:44:49;8.46;85.61
65584;DHT22;73032;43.592;1.458;2023-12-14T03:47:16;8.44;85.58
65584;DHT22;73032;43.592;1.458;2023-12-14T03:49:42;8.44;85.54
65584;DHT22;73032;43.592;1.458;2023-12-14T03:52:10;8.46;85.43
65584;DHT22;73032;43.592;1.458;2023-12-14T03:54:36;8.46;85.74
65584;DHT22;73032;43.592;1.458;2023-12-14T03:57:03;8.49;85.80
65584;DHT22;73032;43.592;1.458;2023-12-14T03:59:30;8.49;85.82
65584;DHT22;73032;43.592;1.458;2023-12-14T04:01:59;8.45;85.75
65584;DHT22;73032;43.592;1.458;2023-12-14T04:04:26;8.46;85.85
65584;DHT22;73032;43.592;1.458;2023-12-14T04:06:52;8.49;85.71
65584;DHT22;73032;43.592;1.458;2023-12-14T04:09:19;8.46;85.80
65584;DHT22;73032;43.592;1.458;2023-12-14T04:11:46;8.48;85.84
65584;DHT22;73032;43.592;1.458;2023-12-14T04:14:13;8.46;85.88
65584;DHT22;73032;43.592;1.458;2023-12-14T04:16:39;8.48;85.77
65584;DHT22;73032;43.592;1.458;2023-12-14T04:19:06;8.48;85.89
65584;DHT22;73032;43.592;1.458;2023-12-14T04:21:37;8.48;85.72
65584;DHT22;73032;43.592;1.458;2023-12-14T04:24:04;8.46;85.78
65584;DHT22;73032;43.592;1.458;2023-12-14T04:26:31;8.46;85.58
65584;DHT22;73032;43.592;1.458;2023-12-14T04:28:57;8.48;85.80
65584;DHT22;73032;43.592;1.458;2023-12-14T04:31:24;8.42;85.83
65584;DHT22;73032;43.592;1.458;2023-12-14T04:33:51;8.46;85.79
65584;DHT22;73032;43.592;1.458;2023-12-14T04:36:18;8.44;85.72
65584;DHT22;73032;43.592;1.458;2023-12-14T04:38:44;8.45;85.54
65584;DHT22;73032;43.592;1.458;2023-12-14T04:41:13;8.42;85.54
65584;DHT22;73032;43.592;1.458;2023-12-14T04:43:40;8.42;85.32
65584;DHT22;73032;43.592;1.458;2023-12-14T04:46:07;8.42;85.46
65584;DHT22;73032;43.592;1.458;2023-12-14T04:48:33;8.42;85.37
65584;DHT22;73032;43.592;1.458;2023-12-14T04:51:00;8.44;85.54
65584;DHT22;73032;43.592;1.458;2023-12-14T04:53:27;8.45;85.59
65584;DHT22;73032;43.592;1.458;2023-12-14T04:55:54;8.48;85.60
65584;DHT22;73032;43.592;1.458;2023-12-14T04:58:21;8.44;85.35
65584;DHT22;73032;43.592;1.458;2023-12-14T05:00:48;8.45;85.50
65584;DHT22;73032;43.592;1.458;2023-12-14T05:03:14;8.42;85.25
65584;DHT22;73032;43.592;1.458;2023-12-14T05:05:41;8.39;85.49
65584;DHT22;73032;43.592;1.458;2023-12-14T05:08:08;8.39;85.27
65584;DHT22;73032;43.592;1.458;2023-12-14T05:10:35;8.37;84.82
65584;DHT22;73032;43.592;1.458;2023-12-14T05:13:02;8.28;84.61
65584;DHT22;73032;43.592;1.458;2023-12-14T05:15:29;8.29;85.23
65584;DHT22;73032;43.592;1.458;2023-12-14T05:17:57;8.27;84.95
65584;DHT22;73032;43.592;1.458;2023-12-14T05:20:24;8.27;84.90
65584;DHT22;73032;43.592;1.458;2023-12-14T05:22:51;8.22;84.91
65584;DHT22;73032;43.592;1.458;2023-12-14T05:25:18;8.18;84.85
65584;DHT22;73032;43.592;1.458;2023-12-14T05:27:45;8.17;84.62
65584;DHT22;73032;43.592;1.458;2023-12-14T05:30:11;8.14;84.68
65584;DHT22;73032;43.592;1.458;2023-12-14T05:32:38;8.14;84.70
65584;DHT22;73032;43.592;1.458;2023-12-14T05:35:06;8.11;84.61
65584;DHT22;73032;43.592;1.458;2023-12-14T05:37:33;8.08;84.78
65584;DHT22;73032;43.592;1.458;2023-12-14T05:40:01;8.12;84.88
65584;DHT22;73032;43.592;1.458;2023-12-14T05:42:27;8.08;84.78
65584;DHT22;73032;43.592;1.458;2023-12-14T05:44:54;8.05;84.92
65584;DHT22;73032;43.592;1.458;2023-12-14T05:47:21;8.05;85.09
65584;DHT22;73032;43.592;1.458;2023-12-14T05:49:47;8.05;85.11
65584;DHT22;73032;43.592;1.458;2023-12-14T05:52:15;8.07;85.24
65584;DHT22;73032;43.592;1.458;2023-12-14T05:54:41;8.04;85.20
65584;DHT22;73032;43.592;1.458;2023-12-14T05:57:08;8.01;85.49
65584;DHT22;73032;43.592;1.458;2023-12-14T05:59:35;7.99;85.20
65584;DHT22;73032;43.592;1.458;2023-12-14T06:02:01;7.99;85.24
65584;DHT22;73032;43.592;1.458;2023-12-14T06:04:28;7.97;85.27
65584;DHT22;73032;43.592;1.458;2023-12-14T06:06:55;7.97;85.38
65584;DHT22;73032;43.592;1.458;2023-12-14T06:09:23;7.93;85.25
65584;DHT22;73032;43.592;1.458;2023-12-14T06:11:55;7.95;85.41
65584;DHT22;73032;43.592;1.458;2023-12-14T06:14:22;7.94;85.57
65584;DHT22;73032;43.592;1.458;2023-12-14T06:16:49;7.95;85.56
65584;DHT22;73032;43.592;1.458;2023-12-14T06:19:15;7.98;85.69
65584;DHT22;73032;43.592;1.458;2023-12-14T06:21:42;7.95;85.26
65584;DHT22;73032;43.592;1.458;2023-12-14T06:24:09;7.94;85.23
65584;DHT22;73032;43.592;1.458;2023-12-14T06:26:45;7.88;85.30
65584;DHT22;73032;43.592;1.458;2023-12-14T06:29:12;7.90;85.30
65584;DHT22;73032;43.592;1.458;2023-12-14T06:31:39;7.88;85.22
65584;DHT22;73032;43.592;1.458;2023-12-14T06:34:06;7.90;85.20
65584;DHT22;73032;43.592;1.458;2023-12-14T06:36:34;7.87;84.98
65584;DHT22;73032;43.592;1.458;2023-12-14T06:39:01;7.86;84.89
65584;DHT22;73032;43.592;1.458;2023-12-14T06:41:29;7.83;85.34
65584;DHT22;73032;43.592;1.458;2023-12-14T06:43:56;7.81;85.47
65584;DHT22;73032;43.592;1.458;2023-12-14T06:46:22;7.78;85.33
65584;DHT22;73032;43.592;1.458;2023-12-14T06:48:49;7.77;85.34
65584;DHT22;73032;43.592;1.458;2023-12-14T06:51:16;7.74;85.37
65584;DHT22;73032;43.592;1.458;2023-12-14T06:53:43;7.76;85.67
65584;DHT22;73032;43.592;1.458;2023-12-14T06:56:10;7.77;85.72
65584;DHT22;73032;43.592;1.458;2023-12-14T06:58:43;7.74;85.64
65584;DHT22;73032;43.592;1.458;2023-12-14T07:01:14;7.74;85.68
65584;DHT22;73032;43.592;1.458;2023-12-14T07:03:42;7.73;85.62
65584;DHT22;73032;43.592;1.458;2023-12-14T07:06:16;7.74;85.48
65584;DHT22;73032;43.592;1.458;2023-12-14T07:08:44;7.70;85.41
65584;DHT22;73032;43.592;1.458;2023-12-14T07:11:11;7.70;85.27
65584;DHT22;73032;43.592;1.458;2023-12-14T07:13:38;7.73;85.25
65584;DHT22;73032;43.592;1.458;2023-12-14T07:16:07;7.74;85.31
65584;DHT22;73032;43.592;1.458;2023-12-14T07:18:41;7.71;84.98
65584;DHT22;73032;43.592;1.458;2023-12-14T07:21:08;7.73;85.26
65584;DHT22;73032;43.592;1.458;2023-12-14T07:23:36;7.71;84.84
65584;DHT22;73032;43.592;1.458;2023-12-14T07:26:03;7.71;85.02
65584;DHT22;73032;43.592;1.458;2023-12-14T07:28:33;7.69;84.96
65584;DHT22;73032;43.592;1.458;2023-12-14T07:31:00;7.73;85.09
65584;DHT22;73032;43.592;1.458;2023-12-14T07:33:29;7.73;85.03
65584;DHT22;73032;43.592;1.458;2023-12-14T07:35:56;7.73;84.93
65584;DHT22;73032;43.592;1.458;2023-12-14T07:38:23;7.74;85.15
65584;DHT22;73032;43.592;1.458;2023-12-14T07:40:50;7.76;85.21
65584;DHT22;73032;43.592;1.458;2023-12-14T07:43:19;7.80;85.38
65584;DHT22;73032;43.592;1.458;2023-12-14T07:45:45;7.77;84.93
65584;DHT22;73032;43.592;1.458;2023-12-14T07:48:12;7.81;84.92
65584;DHT22;73032;43.592;1.458;2023-12-14T07:50:39;7.78;84.24
65584;DHT22;73032;43.592;1.458;2023-12-14T07:53:06;7.78;84.20
65584;DHT22;73032;43.592;1.458;2023-12-14T07:55:33;7.77;84.00
65584;DHT22;73032;43.592;1.458;2023-12-14T07:58:00;7.77;84.25
65584;DHT22;73032;43.592;1.458;2023-12-14T08:00:26;7.77;84.08
65584;DHT22;73032;43.592;1.458;2023-12-14T08:02:53;7.84;84.51
65584;DHT22;73032;43.592;1.458;2023-12-14T08:05:20;7.84;84.04
65584;DHT22;73032;43.592;1.458;2023-12-14T08:07:47;7.84;83.89
65584;DHT22;73032;43.592;1.458;2023-12-14T08:10:14;7.84;84.06
65584;DHT22;73032;43.592;1.458;2023-12-14T08:12:41;7.81;83.55
65584;DHT22;73032;43.592;1.458;2023-12-14T08:15:09;7.78;83.90
65584;DHT22;73032;43.592;1.458;2023-12-14T08:17:35;7.78;83.83
65584;DHT22;73032;43.592;1.458;2023-12-14T08:20:02;7.76;83.86
65584;DHT22;73032;43.592;1.458;2023-12-14T08:22:31;7.74;83.96
65584;DHT22;73032;43.592;1.458;2023-12-14T08:24:58;7.77;84.13
65584;DHT22;73032;43.592;1.458;2023-12-14T08:27:25;7.80;84.16
65584;DHT22;73032;43.592;1.458;2023-12-14T08:29:51;7.83;84.18
65584;DHT22;73032;43.592;1.458;2023-12-14T08:32:18;7.86;84.04
65584;DHT22;73032;43.592;1.458;2023-12-14T08:34:45;7.87;83.78
65584;DHT22;73032;43.592;1.458;2023-12-14T08:37:11;7.90;83.88
65584;DHT22;73032;43.592;1.458;2023-12-14T08:39:39;7.87;83.63
65584;DHT22;73032;43.592;1.458;2023-12-14T08:42:06;7.91;83.82
65584;DHT22;73032;43.592;1.458;2023-12-14T08:44:32;7.88;83.23
65584;DHT22;73032;43.592;1.458;2023-12-14T08:46:59;7.88;83.32
65584;DHT22;73032;43.592;1.458;2023-12-14T08:49:29;7.86;83.42
65584;DHT22;73032;43.592;1.458;2023-12-14T08:51:56;7.80;83.43
65584;DHT22;73032;43.592;1.458;2023-12-14T08:54:22;7.81;83.45
65584;DHT22;73032;43.592;1.458;2023-12-14T08:56:51;7.84;83.88
65584;DHT22;73032;43.592;1.458;2023-12-14T08:59:18;7.90;83.60
65584;DHT22;73032;43.592;1.458;2023-12-14T09:01:46;7.88;83.69
65584;DHT22;73032;43.592;1.458;2023-12-14T09:04:13;7.93;83.40
65584;DHT22;73032;43.592;1.458;2023-12-14T09:06:40;7.93;83.46
65584;DHT22;73032;43.592;1.458;2023-12-14T09:09:11;8.02;83.69
65584;DHT22;73032;43.592;1.458;2023-12-14T09:11:38;8.02;83.16
65584;DHT22;73032;43.592;1.458;2023-12-14T09:14:04;8.07;83.18
65584;DHT22;73032;43.592;1.458;2023-12-14T09:16:31;8.11;83.33
65584;DHT22;73032;43.592;1.458;2023-12-14T09:18:58;8.11;83.09
65584;DHT22;73032;43.592;1.458;2023-12-14T09:21:25;8.17;82.92
65584;DHT22;73032;43.592;1.458;2023-12-14T09:24:06;8.18;82.51
65584;DHT22;73032;43.592;1.458;2023-12-14T09:26:37;8.20;82.54
65584;DHT22;73032;43.592;1.458;2023-12-14T09:29:04;8.21;82.45
65584;DHT22;73032;43.592;1.458;2023-12-14T09:31:31;8.24;82.26
65584;DHT22;73032;43.592;1.458;2023-12-14T09:33:58;8.24;82.06
65584;DHT22;73032;43.592;1.458;2023-12-14T09:36:24;8.22;82.08
65584;DHT22;73032;43.592;1.458;2023-12-14T09:38:51;8.20;81.95
65584;DHT22;73032;43.592;1.458;2023-12-14T09:41:18;8.17;81.75
65584;DHT22;73032;43.592;1.458;2023-12-14T09:43:45;8.12;81.61
65584;DHT22;73032;43.592;1.458;2023-12-14T09:46:12;8.11;81.48
65584;DHT22;73032;43.592;1.458;2023-12-14T09:48:39;8.12;81.77
65584;DHT22;73032;43.592;1.458;2023-12-14T09:51:06;8.15;81.74
65584;DHT22;73032;43.592;1.458;2023-12-14T09:53:33;8.14;81.72
65584;DHT22;73032;43.592;1.458;2023-12-14T09:55:59;8.14;81.48
65584;DHT22;73032;43.592;1.458;2023-12-14T09:58:26;8.12;81.38
65584;DHT22;73032;43.592;1.458;2023-12-14T10:00:53;8.14;81.60
65584;DHT22;73032;43.592;1.458;2023-12-14T10:03:25;8.15;81.61
65584;DHT22;73032;43.592;1.458;2023-12-14T10:05:54;8.11;81.51
65584;DHT22;73032;43.592;1.458;2023-12-14T10:08:22;8.17;81.66
65584;DHT22;73032;43.592;1.458;2023-12-14T10:10:51;8.15;81.59
65584;DHT22;73032;43.592;1.458;2023-12-14T10:13:21;8.15;81.54
65584;DHT22;73032;43.592;1.458;2023-12-14T10:15:48;8.17;81.82
65584;DHT22;73032;43.592;1.458;2023-12-14T10:18:24;8.14;81.54
65584;DHT22;73032;43.592;1.458;2023-12-14T10:20:55;8.15;81.46
65584;DHT22;73032;43.592;1.458;2023-12-14T10:23:23;8.11;81.05
65584;DHT22;73032;43.592;1.458;2023-12-14T10:25:52;8.15;81.71
65584;DHT22;73032;43.592;1.458;2023-12-14T10:28:19;8.15;81.45
65584;DHT22;73032;43.592;1.458;2023-12-14T10:30:46;8.18;81.12
65584;DHT22;73032;43.592;1.458;2023-12-14T10:33:12;8.08;81.01
65584;DHT22;73032;43.592;1.458;2023-12-14T10:35:41;8.11;81.41
65584;DHT22;73032;43.592;1.458;2023-12-14T10:38:08;8.14;81.77
65584;DHT22;73032;43.592;1.458;2023-12-14T10:40:37;8.14;81.37
65584;DHT22;73032;43.592;1.458;2023-12-14T10:43:08;8.15;81.05
65584;DHT22;73032;43.592;1.458;2023-12-14T10:45:36;8.14;80.45
65584;DHT22;73032;43.592;1.458;2023-12-14T10:48:06;8.14;80.79
65584;DHT22;73032;43.592;1.458;2023-12-14T10:50:33;8.17;80.98
65584;DHT22;73032;43.592;1.458;2023-12-14T10:53:00;8.18;80.57
65584;DHT22;73032;43.592;1.458;2023-12-14T10:55:37;8.18;80.36
65584;DHT22;73032;43.592;1.458;2023-12-14T10:58:04;8.21;80.51
65584;DHT22;73032;43.592;1.458;2023-12-14T11:00:31;8.22;80.64
65584;DHT22;73032;43.592;1.458;2023-12-14T11:02:59;8.22;80.88
65584;DHT22;73032;43.592;1.458;2023-12-14T11:05:27;8.28;80.48
65584;DHT22;73032;43.592;1.458;2023-12-14T11:08:01;8.34;80.67
65584;DHT22;73032;43.592;1.458;2023-12-14T11:10:41;8.37;80.53
65584;DHT22;73032;43.592;1.458;2023-12-14T11:13:13;8.39;80.16
65584;DHT22;73032;43.592;1.458;2023-12-14T11:15:48;8.39;79.73
65584;DHT22;73032;43.592;1.458;2023-12-14T11:23:12;8.45;79.79
65584;DHT22;73032;43.592;1.458;2023-12-14T11:25:44;8.51;79.72
65584;DHT22;73032;43.592;1.458;2023-12-14T11:28:20;8.61;79.63
65584;DHT22;73032;43.592;1.458;2023-12-14T11:30:52;8.69;79.46
65584;DHT22;73032;43.592;1.458;2023-12-14T11:33:22;8.76;79.08
65584;DHT22;73032;43.592;1.458;2023-12-14T11:35:52;8.76;78.96
65584;DHT22;73032;43.592;1.458;2023-12-14T11:38:20;8.79;78.70
65584;DHT22;73032;43.592;1.458;2023-12-14T11:40:49;8.86;79.31
65584;DHT22;73032;43.592;1.458;2023-12-14T11:43:16;8.87;78.77
65584;DHT22;73032;43.592;1.458;2023-12-14T11:45:43;8.86;78.49
65584;DHT22;73032;43.592;1.458;2023-12-14T11:48:11;8.92;78.60
65584;DHT22;73032;43.592;1.458;2023-12-14T11:50:40;8.93;78.19
65584;DHT22;73032;43.592;1.458;2023-12-14T11:53:09;8.90;78.16
65584;DHT22;73032;43.592;1.458;2023-12-14T11:55:38;8.89;78.16
65584;DHT22;73032;43.592;1.458;2023-12-14T11:58:06;8.90;78.39
65584;DHT22;73032;43.592;1.458;2023-12-14T12:00:33;8.92;77.78
65584;DHT22;73032;43.592;1.458;2023-12-14T12:03:19;8.89;77.67
65584;DHT22;73032;43.592;1.458;2023-12-14T12:05:51;8.96;78.12
65584;DHT22;73032;43.592;1.458;2023-12-14T12:08:19;9.00;78.00
65584;DHT22;73032;43.592;1.458;2023-12-14T12:10:47;9.09;77.75
65584;DHT22;73032;43.592;1.458;2023-12-14T12:13:19;9.15;76.61
65584;DHT22;73032;43.592;1.458;2023-12-14T12:15:47;9.34;76.63
65584;DHT22;73032;43.592;1.458;2023-12-14T12:18:17;9.41;76.06
65584;DHT22;73032;43.592;1.458;2023-12-14T12:20:44;9.43;76.06
65584;DHT22;73032;43.592;1.458;2023-12-14T12:23:11;9.46;75.41
65584;DHT22;73032;43.592;1.458;2023-12-14T12:25:38;9.47;75.74
65584;DHT22;73032;43.592;1.458;2023-12-14T12:28:05;9.48;75.62
65584;DHT22;73032;43.592;1.458;2023-12-14T12:30:32;9.47;75.46
65584;DHT22;73032;43.592;1.458;2023-12-14T12:32:59;9.50;75.41
65584;DHT22;73032;43.592;1.458;2023-12-14T12:35:27;9.50;74.98
65584;DHT22;73032;43.592;1.458;2023-12-14T12:37:56;9.50;74.85
65584;DHT22;73032;43.592;1.458;2023-12-14T12:40:24;9.67;74.76
65584;DHT22;73032;43.592;1.458;2023-12-14T12:42:52;9.70;73.99
65584;DHT22;73032;43.592;1.458;2023-12-14T12:45:19;10.02;73.25
65584;DHT22;73032;43.592;1.458;2023-12-14T12:47:49;10.01;71.65
65584;DHT22;73032;43.592;1.458;2023-12-14T12:50:16;10.02;72.08
65584;DHT22;73032;43.592;1.458;2023-12-14T12:52:43;10.18;69.70
65584;DHT22;73032;43.592;1.458;2023-12-14T12:55:12;10.31;69.95
65584;DHT22;73032;43.592;1.458;2023-12-14T12:57:39;10.15;69.41
65584;DHT22;73032;43.592;1.458;2023-12-14T13:00:08;10.05;70.18
65584;DHT22;73032;43.592;1.458;2023-12-14T13:02:38;9.82;69.75
65584;DHT22;73032;43.592;1.458;2023-12-14T13:05:07;9.71;70.65
65584;DHT22;73032;43.592;1.458;2023-12-14T13:07:36;9.51;70.53
65584;DHT22;73032;43.592;1.458;2023-12-14T13:10:04;9.51;71.36
65584;DHT22;73032;43.592;1.458;2023-12-14T13:12:50;9.41;70.91
65584;DHT22;73032;43.592;1.458;2023-12-14T13:15:17;9.34;71.11
65584;DHT22;73032;43.592;1.458;2023-12-14T13:17:45;9.33;71.85
65584;DHT22;73032;43.592;1.458;2023-12-14T13:20:12;9.30;72.21
65584;DHT22;73032;43.592;1.458;2023-12-14T13:22:39;9.33;72.70
65584;DHT22;73032;43.592;1.458;2023-12-14T13:25:06;9.33;72.41
65584;DHT22;73032;43.592;1.458;2023-12-14T13:27:33;9.38;72.70
65584;DHT22;73032;43.592;1.458;2023-12-14T13:30:04;9.34;71.65
65584;DHT22;73032;43.592;1.458;2023-12-14T13:32:31;9.34;72.16
65584;DHT22;73032;43.592;1.458;2023-12-14T13:34:57;9.34;72.07
65584;DHT22;73032;43.592;1.458;2023-12-14T13:37:24;9.36;71.80
65584;DHT22;73032;43.592;1.458;2023-12-14T13:39:51;9.36;72.30
65584;DHT22;73032;43.592;1.458;2023-12-14T13:42:19;9.41;72.34
65584;DHT22;73032;43.592;1.458;2023-12-14T13:44:46;9.48;71.96
65584;DHT22;73032;43.592;1.458;2023-12-14T13:47:13;9.44;71.08
65584;DHT22;73032;43.592;1.458;2023-12-14T13:49:39;9.41;69.64
65584;DHT22;73032;43.592;1.458;2023-12-14T13:52:06;9.41;69.81
65584;DHT22;73032;43.592;1.458;2023-12-14T13:54:33;9.41;70.05
65584;DHT22;73032;43.592;1.458;2023-12-14T13:57:00;9.40;70.35
65584;DHT22;73032;43.592;1.458;2023-12-14T13:59:26;9.38;70.42
65584;DHT22;73032;43.592;1.458;2023-12-14T14:01:53;9.36;70.32
65584;DHT22;73032;43.592;1.458;2023-12-14T14:04:20;9.31;70.05
65584;DHT22;73032;43.592;1.458;2023-12-14T14:06:46;9.31;70.42
65584;DHT22;73032;43.592;1.458;2023-12-14T14:09:14;9.34;70.67
65584;DHT22;73032;43.592;1.458;2023-12-14T14:11:41;9.37;71.36
65584;DHT22;73032;43.592;1.458;2023-12-14T14:14:13;9.34;70.64
65584;DHT22;73032;43.592;1.458;2023-12-14T14:16:40;9.33;70.85
65584;DHT22;73032;43.592;1.458;2023-12-14T14:19:07;9.31;70.30
65584;DHT22;73032;43.592;1.458;2023-12-14T14:21:34;9.28;69.99
65584;DHT22;73032;43.592;1.458;2023-12-14T14:24:01;9.26;70.37
65584;DHT22;73032;43.592;1.458;2023-12-14T14:26:27;9.26;70.48
65584;DHT22;73032;43.592;1.458;2023-12-14T14:28:54;9.26;70.35
65584;DHT22;73032;43.592;1.458;2023-12-14T14:31:27;9.30;70.80
65584;DHT22;73032;43.592;1.458;2023-12-14T14:33:58;9.28;70.47
65584;DHT22;73032;43.592;1.458;2023-12-14T14:36:27;9.27;70.47
65584;DHT22;73032;43.592;1.458;2023-12-14T14:38:54;9.27;70.40
65584;DHT22;73032;43.592;1.458;2023-12-14T14:41:21;9.24;70.27
65584;DHT22;73032;43.592;1.458;2023-12-14T14:43:48;9.28;69.87
65584;DHT22;73032;43.592;1.458;2023-12-14T14:46:15;9.31;70.55
65584;DHT22;73032;43.592;1.458;2023-12-14T14:48:42;9.31;70.39
65584;DHT22;73032;43.592;1.458;2023-12-14T14:51:09;9.33;70.25
65584;DHT22;73032;43.592;1.458;2023-12-14T14:53:36;9.37;70.59
65584;DHT22;73032;43.592;1.458;2023-12-14T14:56:04;9.44;70.50
65584;DHT22;73032;43.592;1.458;2023-12-14T14:58:31;9.46;70.50
65584;DHT22;73032;43.592;1.458;2023-12-14T15:00:58;9.51;70.65
65584;DHT22;73032;43.592;1.458;2023-12-14T15:03:25;9.55;70.98
65584;DHT22;73032;43.592;1.458;2023-12-14T15:05:51;9.61;70.44
65584;DHT22;73032;43.592;1.458;2023-12-14T15:08:18;9.62;70.26
65584;DHT22;73032;43.592;1.458;2023-12-14T15:10:45;9.58;69.81
65584;DHT22;73032;43.592;1.458;2023-12-14T15:13:12;9.54;70.04
65584;DHT22;73032;43.592;1.458;2023-12-14T15:15:40;9.52;70.15
65584;DHT22;73032;43.592;1.458;2023-12-14T15:18:07;9.46;70.04
65584;DHT22;73032;43.592;1.458;2023-12-14T15:20:33;9.43;70.39
65584;DHT22;73032;43.592;1.458;2023-12-14T15:23:02;9.40;69.94
65584;DHT22;73032;43.592;1.458;2023-12-14T15:25:32;9.40;70.21
65584;DHT22;73032;43.592;1.458;2023-12-14T15:27:58;9.33;70.37
65584;DHT22;73032;43.592;1.458;2023-12-14T15:30:28;9.33;70.57
65584;DHT22;73032;43.592;1.458;2023-12-14T15:32:54;9.36;71.17
65584;DHT22;73032;43.592;1.458;2023-12-14T15:35:21;9.31;70.70
65584;DHT22;73032;43.592;1.458;2023-12-14T15:37:48;9.28;70.70
65584;DHT22;73032;43.592;1.458;2023-12-14T15:40:15;9.27;70.71
65584;DHT22;73032;43.592;1.458;2023-12-14T15:42:42;9.23;70.90
65584;DHT22;73032;43.592;1.458;2023-12-14T15:45:08;9.23;70.73
65584;DHT22;73032;43.592;1.458;2023-12-14T15:47:36;9.23;71.11
65584;DHT22;73032;43.592;1.458;2023-12-14T15:50:03;9.24;71.26
65584;DHT22;73032;43.592;1.458;2023-12-14T15:52:30;9.19;71.25